To NAV CANADA Home Page Login to a new session Search on AWWS site Feedback and Comments Disclaimer Vers la page française équivalente Tips FAQ What's new on the site To the Forecasts and Observations / NOTAM section To "File a Flight Plan" website Publications and other links Update of the User's profile FIC Telephone Numbers My Weather Data Folder Route Weather Data Regional Weather Data Local Weather Data To the Forecasts and Observations / NOTAM section
Request Generated 08/22/2017 at 03:32:34 UTC . Weather information available at that time is displayed.

METAR/TAF

TORONTO/BUTTONVILLE MUNICIPAL/ON    

METAR CYKZ 220300Z 18004KT 15SM FEW240 23/19 A2999 RMK CI1 SLP156
DENSITY ALT 1700FT=
METAR CYKZ 220200Z 17005KT 15SM FEW240 24/19 A3000 RMK CI2 SLP159
DENSITY ALT 1800FT=
METAR CYKZ 220100Z 18006KT 15SM SCT240 25/20 A3001 RMK CI4 SLP162
DENSITY ALT 1900FT=

TAF CYKZ 212342Z 2200/2212 22010KT P6SM FEW050 BKN240
FM220300 22006KT P6SM SKC
FM221000 19010KT 6SM BR SCT008 BKN012
RMK NXT FCST BY 220600Z=
Your time UTC time
Weather data provided by Environment Canada and NAV CANADA